Time;durP1;ratioP1;P1;durP2;ratioP2;P2;SDS_P1;SDS_P2;PMS_P1;PMS_P2;Temp;Humidity;BMP_temperature;BMP_pressure;BME280_temperature;BME280_humidity;BME280_pressure;Samples;Min_cycle;Max_cycle;Signal;HPM_P1;HPM_P2
2022/02/25 00:02:10;;;;;;;0.00;0.00;;;;;;;4.55;74.58;101139.25;7355401;19;20021;-64
2022/02/25 00:04:36;;;;;;;0.00;0.00;;;;;;;4.74;74.13;101176.53;7358453;19;20017;-64
2022/02/25 00:07:01;;;;;;;0.00;0.00;;;;;;;4.71;73.77;101176.47;7365836;19;20010;-64
2022/02/25 00:09:27;;;;;;;0.00;0.00;;;;;;;4.71;73.91;101187.69;7364326;19;20374;-64
2022/02/25 00:11:52;;;;;;;0.00;0.00;;;;;;;4.54;74.06;101163.41;7363925;19;20018;-64
2022/02/25 00:14:18;;;;;;;0.00;0.00;;;;;;;4.68;74.35;101182.50;7362007;19;20738;-64
2022/02/25 00:16:45;;;;;;;0.00;0.00;;;;;;;4.60;74.53;101178.97;7358726;19;20007;-64
2022/02/25 00:19:11;;;;;;;0.10;0.10;;;;;;;4.65;74.07;101203.16;7357010;19;20055;-64
2022/02/25 00:21:37;;;;;;;0.00;0.00;;;;;;;4.66;74.17;101221.31;7357924;19;20021;-64
2022/02/25 00:24:02;;;;;;;0.00;0.00;;;;;;;4.63;74.42;101221.25;7357916;19;20042;-64
2022/02/25 00:26:28;;;;;;;0.00;0.00;;;;;;;4.63;74.56;101228.16;7361752;19;20014;-64
2022/02/25 00:28:53;;;;;;;0.00;0.00;;;;;;;4.62;74.29;101249.72;7355718;19;20014;-64
2022/02/25 00:31:19;;;;;;;0.00;0.00;;;;;;;4.60;74.33;101246.22;7357863;19;20118;-64
2022/02/25 00:33:44;;;;;;;0.00;0.00;;;;;;;4.60;74.43;101236.75;7359830;19;20455;-64
2022/02/25 00:36:10;;;;;;;0.00;0.00;;;;;;;4.57;74.34;101238.44;7364544;19;20038;-64
2022/02/25 00:38:35;;;;;;;0.00;0.00;;;;;;;4.55;74.99;101243.59;7371320;19;20347;-64
2022/02/25 00:41:02;;;;;;;0.00;0.00;;;;;;;4.56;74.33;101234.09;7367142;19;20158;-65
2022/02/25 00:43:27;;;;;;;0.08;0.08;;;;;;;4.55;74.40;101245.31;7364004;19;20011;-64
2022/02/25 00:45:53;;;;;;;0.00;0.00;;;;;;;4.57;74.51;101253.97;7365352;19;20011;-64
2022/02/25 00:48:19;;;;;;;0.00;0.00;;;;;;;4.56;74.40;101257.38;7364019;19;20071;-64
2022/02/25 00:50:44;;;;;;;0.00;0.00;;;;;;;4.55;74.59;101266.84;7363279;19;20066;-64
2022/02/25 00:53:10;;;;;;;0.10;0.10;;;;;;;4.47;74.44;101259.91;7360311;19;20003;-64
2022/02/25 00:55:36;;;;;;;0.05;0.05;;;;;;;4.55;74.72;101284.97;7365152;19;20006;-64
2022/02/25 00:58:02;;;;;;;0.00;0.00;;;;;;;4.43;74.58;101254.66;7363105;19;20014;-64
2022/02/25 01:00:40;;;;;;;0.00;0.00;;;;;;;4.61;74.59;101284.16;4007045;19;10002315;-64
2022/02/25 01:03:05;;;;;;;0.10;0.10;;;;;;;4.62;74.82;101291.09;5023633;19;10001404;-64
2022/02/25 01:05:31;;;;;;;0.00;0.00;;;;;;;4.62;74.47;101285.94;7355289;19;20174;-64
2022/02/25 01:07:56;;;;;;;0.00;0.00;;;;;;;4.63;74.80;101285.94;7366343;19;20006;-64
2022/02/25 01:10:22;;;;;;;0.00;0.00;;;;;;;4.65;74.58;101288.53;7361180;19;20010;-63
2022/02/25 01:12:48;;;;;;;0.10;0.10;;;;;;;4.66;74.27;101292.84;7360913;19;20102;-64
2022/02/25 01:15:15;;;;;;;0.00;0.00;;;;;;;4.65;74.46;101297.16;7363425;19;20027;-63
2022/02/25 01:17:40;;;;;;;0.00;0.00;;;;;;;4.61;74.17;101298.00;7361027;19;20039;-63
2022/02/25 01:20:07;;;;;;;0.00;0.00;;;;;;;4.58;74.47;101294.50;7365485;19;20010;-64
2022/02/25 01:22:33;;;;;;;0.00;0.00;;;;;;;4.63;74.38;101308.34;7367001;19;20021;-64
2022/02/25 01:24:59;;;;;;;0.00;0.00;;;;;;;4.60;74.69;101310.88;7358137;19;20031;-63
2022/02/25 01:27:25;;;;;;;0.00;0.00;;;;;;;4.62;74.67;101316.97;7366374;19;20042;-64
2022/02/25 01:29:51;;;;;;;0.10;0.10;;;;;;;4.60;74.64;101316.06;7358786;19;20022;-63
2022/02/25 01:32:17;;;;;;;0.05;0.05;;;;;;;4.59;74.64;101319.50;7364260;19;20014;-65
2022/02/25 01:34:43;;;;;;;0.10;0.10;;;;;;;4.59;74.53;101332.44;7364471;19;20015;-64
2022/02/25 01:37:09;;;;;;;0.00;0.00;;;;;;;4.58;74.73;101335.88;7358265;19;20102;-64
2022/02/25 01:39:35;;;;;;;0.10;0.10;;;;;;;4.59;74.61;101347.97;7365784;19;20070;-64
2022/02/25 01:42:00;;;;;;;0.00;0.00;;;;;;;4.57;74.69;101349.66;7366914;19;20010;-64
2022/02/25 01:44:29;;;;;;;0.10;0.10;;;;;;;4.56;74.90;101356.56;7362555;19;20018;-64
2022/02/25 01:47:05;;;;;;;0.00;0.00;;;;;;;4.59;74.85;101373.81;7360280;19;20007;-65
2022/02/25 01:49:31;;;;;;;0.10;0.10;;;;;;;4.53;74.82;101373.75;7363637;19;20085;-64
2022/02/25 01:51:59;;;;;;;0.10;0.10;;;;;;;4.54;74.63;101366.00;7357657;19;20014;-64
2022/02/25 01:54:26;;;;;;;0.00;0.00;;;;;;;4.54;74.78;101370.31;7362545;19;20014;-64
2022/02/25 01:56:55;;;;;;;0.00;0.00;;;;;;;4.54;74.68;101383.25;7360158;19;21621;-65
2022/02/25 01:59:21;;;;;;;0.00;0.00;;;;;;;4.51;74.71;101385.78;7367016;19;20018;-64
2022/02/25 02:01:46;;;;;;;0.10;0.10;;;;;;;4.52;74.63;101395.28;7361836;19;20007;-64
2022/02/25 02:04:12;;;;;;;0.10;0.10;;;;;;;4.50;74.69;101389.22;7363294;19;20018;-63
2022/02/25 02:06:37;;;;;;;0.10;0.10;;;;;;;4.47;74.66;101381.44;7361453;19;20010;-64
2022/02/25 02:09:05;;;;;;;0.00;0.00;;;;;;;4.49;74.48;101387.47;7365010;19;20014;-64
2022/02/25 02:11:34;;;;;;;0.00;0.00;;;;;;;4.50;74.38;101404.72;7362062;19;20006;-63
2022/02/25 02:14:02;;;;;;;0.00;0.00;;;;;;;4.48;74.52;101406.44;7361939;19;20043;-63
2022/02/25 02:16:27;;;;;;;0.10;0.10;;;;;;;4.46;75.09;101400.38;7370406;19;20014;-64
2022/02/25 02:18:53;;;;;;;0.00;0.00;;;;;;;4.28;74.99;101385.47;7368252;19;20752;-64
2022/02/25 02:21:25;;;;;;;0.10;0.10;;;;;;;4.47;74.99;101425.41;7372391;19;20022;-64
2022/02/25 02:23:53;;;;;;;0.00;0.00;;;;;;;4.45;74.76;101427.06;7366440;19;20030;-63
2022/02/25 02:26:19;;;;;;;0.00;0.00;;;;;;;4.39;74.65;101420.97;7361540;19;20053;-63
2022/02/25 02:28:44;;;;;;;0.00;0.00;;;;;;;4.31;74.57;101412.25;7360053;19;20008;-64
2022/02/25 02:31:10;;;;;;;0.10;0.10;;;;;;;4.39;75.07;101413.22;7362644;19;20476;-63
2022/02/25 02:33:36;;;;;;;0.10;0.10;;;;;;;4.39;74.82;101423.56;7359961;19;20022;-64
2022/02/25 02:36:03;;;;;;;0.10;0.10;;;;;;;4.41;74.72;101442.56;7364845;19;20021;-63
2022/02/25 02:38:29;;;;;;;0.00;0.00;;;;;;;4.41;75.16;101433.94;7362657;19;20015;-64
2022/02/25 02:40:55;;;;;;;0.08;0.08;;;;;;;4.39;74.91;101439.06;7363288;19;20459;-63
2022/02/25 02:43:20;;;;;;;0.10;0.10;;;;;;;4.38;74.72;101442.50;7359842;19;20028;-64
2022/02/25 02:45:46;;;;;;;0.10;0.10;;;;;;;4.37;74.84;101451.13;7358910;19;20037;-64
2022/02/25 02:48:11;;;;;;;0.00;0.00;;;;;;;4.35;75.29;101452.78;7362207;19;20028;-63
2022/02/25 02:50:37;;;;;;;0.05;0.05;;;;;;;4.33;75.29;101454.50;7364471;19;20021;-64
2022/02/25 02:53:02;;;;;;;0.00;0.00;;;;;;;4.30;75.00;101469.09;7361056;19;20011;-64
2022/02/25 02:55:28;;;;;;;0.00;0.00;;;;;;;4.31;74.88;101476.91;7361804;19;20014;-64
2022/02/25 02:57:53;;;;;;;0.00;0.00;;;;;;;4.29;74.75;101468.22;7351715;19;20041;-64
2022/02/25 03:00:19;;;;;;;0.00;0.00;;;;;;;4.27;74.84;101464.75;7357097;19;20014;-63
2022/02/25 03:02:44;;;;;;;0.10;0.10;;;;;;;4.25;74.77;101474.19;7363151;19;20022;-64
2022/02/25 03:05:10;;;;;;;0.00;0.00;;;;;;;4.23;75.03;101467.28;7362553;19;20638;-63
2022/02/25 03:07:36;;;;;;;0.00;0.00;;;;;;;4.23;75.17;101475.91;7363164;19;20014;-64
2022/02/25 03:10:16;;;;;;;0.00;0.00;;;;;;;4.24;75.14;101475.03;4614791;19;10002429;-64
2022/02/25 03:12:42;;;;;;;0.00;0.00;;;;;;;4.22;75.24;101476.75;4515216;19;10002154;-63
2022/02/25 03:15:09;;;;;;;0.00;0.00;;;;;;;4.21;75.25;101480.19;7361234;19;20753;-63
2022/02/25 03:17:35;;;;;;;0.00;0.00;;;;;;;4.21;75.27;101487.94;7358868;19;21197;-63
2022/02/25 03:20:01;;;;;;;0.10;0.10;;;;;;;4.18;75.42;101484.44;7356471;19;20461;-63
2022/02/25 03:22:27;;;;;;;0.00;0.00;;;;;;;4.21;75.45;101485.34;7358890;19;20462;-63
2022/02/25 03:24:56;;;;;;;0.00;0.00;;;;;;;4.23;75.44;101485.38;7357928;19;20006;-64
2022/02/25 03:27:22;;;;;;;0.08;0.08;;;;;;;4.12;75.54;101474.88;7358932;19;20006;-63
2022/02/25 03:29:48;;;;;;;0.00;0.00;;;;;;;4.24;75.46;101489.69;7351816;19;20014;-63
2022/02/25 03:32:13;;;;;;;0.10;0.10;;;;;;;4.24;75.77;101500.91;7356767;19;20014;-63
2022/02/25 03:34:39;;;;;;;0.00;0.00;;;;;;;4.24;75.61;101485.38;7359462;19;20020;-63
2022/02/25 03:37:05;;;;;;;0.10;0.10;;;;;;;4.24;75.50;101490.56;7359721;19;20019;-63
2022/02/25 03:39:31;;;;;;;0.10;0.10;;;;;;;4.25;75.40;101492.28;7360734;19;20029;-64
2022/02/25 03:41:56;;;;;;;0.00;0.00;;;;;;;4.26;75.62;101499.22;7365533;19;20050;-62
2022/02/25 03:44:22;;;;;;;0.00;0.00;;;;;;;4.27;75.56;101506.13;7364305;19;20022;-64
2022/02/25 03:46:47;;;;;;;0.00;0.00;;;;;;;4.27;75.61;101510.44;7346592;19;20035;-64
2022/02/25 03:49:14;;;;;;;0.00;0.00;;;;;;;4.25;75.20;101505.22;7363546;19;20049;-63
2022/02/25 03:51:39;;;;;;;0.00;0.00;;;;;;;4.25;75.40;101523.31;7364962;19;20081;-64
2022/02/25 03:54:04;;;;;;;0.00;0.00;;;;;;;4.24;75.08;101511.22;7365884;19;20014;-63
2022/02/25 03:56:30;;;;;;;0.00;0.00;;;;;;;4.19;75.25;101514.59;7364756;19;20037;-64
2022/02/25 03:58:55;;;;;;;0.00;0.00;;;;;;;4.14;75.51;101504.19;7361741;19;20480;-64
2022/02/25 04:01:21;;;;;;;0.00;0.00;;;;;;;4.08;75.17;101499.78;7364586;19;20010;-64
2022/02/25 04:03:46;;;;;;;0.00;0.00;;;;;;;4.21;75.37;101534.47;7362352;19;20081;-62
2022/02/25 04:06:12;;;;;;;0.10;0.10;;;;;;;4.21;75.07;101542.22;7356448;19;20485;-63
2022/02/25 04:08:37;;;;;;;0.03;0.03;;;;;;;4.07;75.28;101510.09;7365694;19;20863;-64
2022/02/25 04:11:03;;;;;;;0.00;0.00;;;;;;;4.07;75.43;101512.69;7363812;19;20013;-63
2022/02/25 04:13:28;;;;;;;0.00;0.00;;;;;;;4.14;75.53;101528.31;7366267;19;20037;-64
2022/02/25 04:15:54;;;;;;;0.00;0.00;;;;;;;4.17;75.20;101545.59;7364515;19;20019;-63
2022/02/25 04:18:19;;;;;;;0.10;0.10;;;;;;;4.16;75.46;101539.56;7360607;19;20015;-63
2022/02/25 04:20:44;;;;;;;0.10;0.10;;;;;;;4.13;75.35;101538.63;7361529;19;25853;-64
2022/02/25 04:23:10;;;;;;;0.00;0.00;;;;;;;4.15;75.58;101544.69;7368686;19;20014;-63
2022/02/25 04:25:35;;;;;;;0.00;0.00;;;;;;;4.15;75.49;101549.84;7371183;19;20010;-64
2022/02/25 04:28:02;;;;;;;0.00;0.00;;;;;;;4.14;75.12;101558.47;7368367;19;20014;-63
2022/02/25 04:30:28;;;;;;;0.10;0.10;;;;;;;4.13;75.71;101554.13;7363647;19;20752;-63
2022/02/25 04:32:54;;;;;;;0.00;0.00;;;;;;;4.13;75.52;101574.81;7364900;19;20038;-64
2022/02/25 04:35:20;;;;;;;0.10;0.10;;;;;;;4.10;75.47;101565.28;7361703;19;20010;-64
2022/02/25 04:37:46;;;;;;;0.00;0.00;;;;;;;4.11;75.70;101579.09;7366076;19;20762;-63
2022/02/25 04:40:12;;;;;;;0.10;0.10;;;;;;;4.12;75.70;101570.50;7367750;19;20022;-64
2022/02/25 04:42:37;;;;;;;0.00;0.00;;;;;;;4.10;75.61;101575.63;7363565;19;20026;-64
2022/02/25 04:45:04;;;;;;;0.03;0.03;;;;;;;4.11;75.64;101594.59;7364533;19;20019;-64
2022/02/25 04:47:30;;;;;;;0.10;0.10;;;;;;;4.11;75.91;101587.72;7358199;19;20014;-63
2022/02/25 04:49:55;;;;;;;0.00;0.00;;;;;;;4.12;75.60;101604.09;7365648;19;20014;-64
2022/02/25 04:52:21;;;;;;;0.00;0.00;;;;;;;4.10;75.68;101591.13;7358655;19;20025;-63
2022/02/25 04:54:46;;;;;;;0.00;0.00;;;;;;;4.14;75.60;101602.41;7361126;19;20065;-63
2022/02/25 04:57:12;;;;;;;0.05;0.05;;;;;;;4.14;75.68;101612.75;7363871;19;20022;-63
2022/02/25 04:59:37;;;;;;;0.00;0.00;;;;;;;4.15;75.47;101609.31;7363436;19;20010;-64
2022/02/25 05:02:03;;;;;;;0.00;0.00;;;;;;;4.15;75.53;101611.88;7364115;19;20015;-63
2022/02/25 05:04:29;;;;;;;0.08;0.08;;;;;;;4.15;75.60;101617.06;7363495;19;20014;-63
2022/02/25 05:06:54;;;;;;;0.00;0.00;;;;;;;4.13;75.76;101611.00;7370608;19;20066;-63
2022/02/25 05:09:20;;;;;;;0.00;0.00;;;;;;;4.15;75.73;101630.84;7368876;19;20007;-63
2022/02/25 05:11:45;;;;;;;0.00;0.00;;;;;;;4.16;75.72;101627.44;7368365;19;20002;-63
2022/02/25 05:22:39;;;;;;;0.00;0.00;;;;;;;4.16;75.44;101631.75;7361996;19;20812;-64
2022/02/25 05:25:05;;;;;;;0.00;0.00;;;;;;;4.18;75.87;101622.28;7365614;19;20010;-64
2022/02/25 05:27:30;;;;;;;0.00;0.00;;;;;;;4.15;75.45;101640.31;7359332;19;20033;-64
2022/02/25 05:29:56;;;;;;;0.00;0.00;;;;;;;4.18;75.56;101642.97;7364447;19;20014;-63
2022/02/25 05:32:21;;;;;;;0.00;0.00;;;;;;;4.16;75.52;101655.88;7360002;19;20017;-63
2022/02/25 05:34:47;;;;;;;0.00;0.00;;;;;;;4.16;75.57;101648.13;7364092;19;20014;-63
2022/02/25 05:37:12;;;;;;;0.00;0.00;;;;;;;4.11;75.82;101646.31;7359224;19;20030;-63
2022/02/25 05:39:38;;;;;;;0.00;0.00;;;;;;;4.15;75.61;101653.25;7363747;19;20055;-64
2022/02/25 05:42:03;;;;;;;0.00;0.00;;;;;;;4.09;75.54;101647.97;7365735;19;20037;-62
2022/02/25 05:44:29;;;;;;;0.00;0.00;;;;;;;4.12;75.45;101660.97;7360215;19;20018;-63
2022/02/25 05:46:54;;;;;;;0.00;0.00;;;;;;;4.09;75.48;101663.47;7362559;19;20485;-64
2022/02/25 05:49:20;;;;;;;0.10;0.10;;;;;;;4.09;75.51;101673.81;7366780;19;20021;-64
2022/02/25 05:51:45;;;;;;;0.00;0.00;;;;;;;4.08;75.36;101680.69;7360358;19;20017;-64
2022/02/25 05:54:11;;;;;;;0.00;0.00;;;;;;;4.06;75.70;101690.16;7362938;19;20014;-64
2022/02/25 05:56:36;;;;;;;0.00;0.00;;;;;;;4.05;75.78;101703.03;7365324;19;20370;-63
2022/02/25 05:59:02;;;;;;;0.10;0.10;;;;;;;4.04;75.38;101703.88;7364237;19;20118;-64
2022/02/25 06:01:27;;;;;;;0.10;0.10;;;;;;;3.99;75.58;101700.31;7367543;19;20021;-64
2022/02/25 06:03:54;;;;;;;0.10;0.10;;;;;;;3.94;75.56;101707.97;7368116;19;20585;-63
2022/02/25 06:06:19;;;;;;;0.10;0.10;;;;;;;4.00;75.45;101720.16;7369535;19;20013;-63
2022/02/25 06:08:45;;;;;;;0.00;0.00;;;;;;;3.98;75.69;101724.44;7365375;19;20467;-63
2022/02/25 06:11:10;;;;;;;0.00;0.00;;;;;;;3.98;75.80;101745.09;7361683;19;20032;-65
2022/02/25 06:13:36;;;;;;;0.00;0.00;;;;;;;3.97;75.53;101754.56;7363754;19;20014;-64
2022/02/25 06:16:01;;;;;;;0.00;0.00;;;;;;;3.82;75.87;101744.78;7364000;19;20037;-63
2022/02/25 06:18:26;;;;;;;0.10;0.10;;;;;;;3.86;75.93;101751.75;7338222;19;20022;-63
2022/02/25 06:20:52;;;;;;;0.10;0.10;;;;;;;3.92;75.91;101765.66;7364787;19;20033;-63
2022/02/25 06:23:21;;;;;;;0.00;0.00;;;;;;;3.90;75.37;101766.50;7356461;19;20055;-64
2022/02/25 06:25:47;;;;;;;0.00;0.00;;;;;;;3.89;75.88;101766.44;7363345;19;20010;-63
2022/02/25 06:28:13;;;;;;;0.00;0.00;;;;;;;3.87;75.66;101769.00;7361137;19;20520;-63
2022/02/25 06:30:39;;;;;;;0.00;0.00;;;;;;;3.84;75.87;101768.06;7360857;19;20022;-63
2022/02/25 06:33:04;;;;;;;0.05;0.05;;;;;;;3.86;76.01;101780.19;7354707;19;20014;-63
2022/02/25 06:35:30;;;;;;;0.00;0.00;;;;;;;3.87;75.81;101788.81;7359642;19;20027;-63
2022/02/25 06:37:56;;;;;;;0.00;0.00;;;;;;;3.87;76.05;101783.63;7366510;19;20011;-64
2022/02/25 06:40:21;;;;;;;0.00;0.00;;;;;;;3.87;75.71;101794.84;7363784;19;20010;-63
2022/02/25 06:42:47;;;;;;;0.00;0.00;;;;;;;3.87;75.70;101800.00;7362288;19;20051;-63
2022/02/25 06:45:14;;;;;;;0.10;0.10;;;;;;;3.88;75.73;101800.88;7362739;19;20049;-64
2022/02/25 06:47:40;;;;;;;0.07;0.07;;;;;;;3.86;75.75;101798.28;7362446;19;20010;-64
2022/02/25 06:50:06;;;;;;;0.10;0.10;;;;;;;3.88;75.56;101806.91;7361930;19;20774;-64
2022/02/25 06:52:31;;;;;;;0.10;0.10;;;;;;;3.83;75.68;101799.91;7368307;19;20360;-64
2022/02/25 06:54:57;;;;;;;0.00;0.00;;;;;;;3.82;75.82;101811.94;7370909;19;20014;-64
2022/02/25 06:57:22;;;;;;;0.10;0.10;;;;;;;3.88;75.98;101827.59;7362421;19;20014;-64
2022/02/25 06:59:48;;;;;;;0.00;0.00;;;;;;;3.89;76.08;101839.66;7369783;19;20082;-64
2022/02/25 07:02:13;;;;;;;0.00;0.00;;;;;;;3.90;75.64;101831.09;7369587;19;20042;-64
2022/02/25 07:04:40;;;;;;;0.00;0.00;;;;;;;3.92;75.86;101838.00;7362989;19;20022;-64
2022/02/25 07:07:05;;;;;;;0.03;0.03;;;;;;;3.90;75.84;101838.84;7359361;19;20014;-63
2022/02/25 07:09:31;;;;;;;0.10;0.10;;;;;;;3.90;75.71;101846.59;7360363;19;20006;-63
2022/02/25 07:11:56;;;;;;;0.10;0.10;;;;;;;3.90;75.58;101851.78;7360466;19;20014;-63
2022/02/25 07:14:22;;;;;;;0.00;0.00;;;;;;;3.90;75.98;101856.94;7364369;19;20006;-63
2022/02/25 07:16:47;;;;;;;0.03;0.03;;;;;;;3.89;75.87;101859.47;7360581;19;20057;-63
2022/02/25 07:19:26;;;;;;;0.10;0.10;;;;;;;3.90;76.02;101863.78;5047511;19;10002936;-64
2022/02/25 07:21:51;;;;;;;0.00;0.00;;;;;;;3.86;75.67;101862.88;3503183;19;10001971;-64
2022/02/25 07:24:17;;;;;;;0.00;0.00;;;;;;;3.86;75.90;101870.63;7366795;19;20015;-64
2022/02/25 07:26:43;;;;;;;0.00;0.00;;;;;;;3.85;75.97;101862.81;7366397;19;20613;-64
2022/02/25 07:29:10;;;;;;;0.10;0.10;;;;;;;3.83;75.46;101860.19;7365087;19;20010;-64
2022/02/25 07:31:36;;;;;;;0.00;0.00;;;;;;;3.84;75.75;101869.69;7362583;19;20014;-63
2022/02/25 07:34:02;;;;;;;0.00;0.00;;;;;;;3.82;75.76;101879.13;7362228;19;20018;-63
2022/02/25 07:36:28;;;;;;;0.03;0.03;;;;;;;3.83;75.82;101875.69;7365604;19;20010;-64
2022/02/25 07:38:53;;;;;;;0.10;0.10;;;;;;;3.82;76.06;101879.13;7373637;19;20018;-64
2022/02/25 07:41:19;;;;;;;0.00;0.00;;;;;;;3.82;75.62;101883.41;7375545;19;20014;-63
2022/02/25 07:43:44;;;;;;;0.08;0.08;;;;;;;3.82;75.87;101894.63;7363141;19;20018;-64
2022/02/25 07:46:09;;;;;;;0.10;0.10;;;;;;;3.83;75.76;101896.38;7374236;19;20010;-63
2022/02/25 07:48:35;;;;;;;0.00;0.00;;;;;;;3.81;76.05;101892.88;7370452;19;20049;-64
2022/02/25 07:51:00;;;;;;;0.10;0.10;;;;;;;3.82;75.60;101894.63;7366894;19;20022;-64
2022/02/25 07:53:27;;;;;;;0.10;0.10;;;;;;;3.82;75.91;101894.63;7366550;19;20043;-63
2022/02/25 07:55:54;;;;;;;0.10;0.10;;;;;;;3.83;75.87;101905.84;7368411;19;20037;-63
2022/02/25 07:58:19;;;;;;;0.03;0.03;;;;;;;3.83;76.07;101905.84;7366458;19;20102;-64
2022/02/25 08:00:44;;;;;;;0.00;0.00;;;;;;;3.83;76.24;101914.47;7365396;19;20073;-64
2022/02/25 08:03:10;;;;;;;0.00;0.00;;;;;;;3.85;76.12;101917.06;7362624;19;20017;-63
2022/02/25 08:05:36;;;;;;;0.00;0.00;;;;;;;3.86;75.90;101921.44;7354740;19;20014;-63
2022/02/25 08:08:05;;;;;;;0.05;0.05;;;;;;;3.87;76.13;101921.44;7366342;19;20018;-64
2022/02/25 08:10:32;;;;;;;0.00;0.00;;;;;;;3.90;75.93;101929.28;7364979;19;20007;-64
2022/02/25 08:12:58;;;;;;;0.00;0.00;;;;;;;3.93;75.88;101933.63;7365005;19;20098;-64
2022/02/25 08:15:24;;;;;;;0.00;0.00;;;;;;;3.96;75.95;101938.03;7357966;19;20470;-63
2022/02/25 08:17:49;;;;;;;0.10;0.10;;;;;;;3.99;75.77;101940.66;7366364;19;20022;-63
2022/02/25 08:20:15;;;;;;;0.10;0.10;;;;;;;4.03;75.96;101950.25;7363677;19;20371;-64
2022/02/25 08:22:41;;;;;;;0.05;0.05;;;;;;;4.06;75.86;101960.66;7363220;19;20034;-63
2022/02/25 08:25:07;;;;;;;0.05;0.05;;;;;;;4.10;76.22;101962.47;7362433;19;20006;-63
2022/02/25 08:27:34;;;;;;;0.00;0.00;;;;;;;4.08;75.97;101948.66;7352687;19;20033;-63
2022/02/25 08:29:59;;;;;;;0.00;0.00;;;;;;;4.21;76.01;101973.97;7362263;19;20407;-64
2022/02/25 08:32:25;;;;;;;0.00;0.00;;;;;;;4.31;76.27;101960.41;7373816;19;20027;-64
2022/02/25 08:34:50;;;;;;;0.00;0.00;;;;;;;4.38;75.77;101954.53;7368644;19;20476;-63
2022/02/25 08:37:16;;;;;;;0.00;0.00;;;;;;;4.62;76.20;101971.44;7351811;19;20014;-64
2022/02/25 08:39:41;;;;;;;0.00;0.00;;;;;;;4.81;75.57;101970.13;7358412;19;20007;-63
2022/02/25 08:42:07;;;;;;;0.00;0.00;;;;;;;4.99;75.72;101972.22;7360659;19;20028;-63
2022/02/25 08:44:32;;;;;;;0.08;0.08;;;;;;;5.17;75.41;101976.06;7356976;19;20086;-64
2022/02/25 08:46:58;;;;;;;0.10;0.10;;;;;;;5.36;75.22;101987.63;7361905;19;20038;-63
2022/02/25 08:49:26;;;;;;;0.00;0.00;;;;;;;5.57;75.22;101988.88;7359603;19;20573;-63
2022/02/25 08:51:52;;;;;;;0.10;0.10;;;;;;;5.74;74.87;101990.09;7353454;19;20536;-64
2022/02/25 08:54:17;;;;;;;0.10;0.10;;;;;;;5.95;74.83;101990.47;7362219;19;20074;-63
2022/02/25 08:56:44;;;;;;;0.00;0.00;;;;;;;6.18;74.37;101985.69;7360504;19;20769;-64
2022/02/25 08:59:09;;;;;;;0.00;0.00;;;;;;;6.38;74.51;101982.50;7366171;19;20347;-63
2022/02/25 09:01:35;;;;;;;0.00;0.00;;;;;;;6.63;74.30;101986.31;7361176;19;20382;-64
2022/02/25 09:04:01;;;;;;;0.00;0.00;;;;;;;6.81;73.87;101981.41;7363896;19;20011;-63
2022/02/25 09:06:30;;;;;;;0.00;0.00;;;;;;;7.02;73.57;101991.19;7366997;19;20027;-63
2022/02/25 09:08:57;;;;;;;0.00;0.00;;;;;;;7.21;73.47;101993.16;7354137;19;20054;-63
2022/02/25 09:11:23;;;;;;;0.00;0.00;;;;;;;7.43;73.44;102006.41;7367610;19;20018;-63
2022/02/25 09:13:52;;;;;;;0.00;0.00;;;;;;;7.66;73.14;102004.06;7352814;19;20027;-63
2022/02/25 09:16:17;;;;;;;0.00;0.00;;;;;;;7.80;72.67;102005.03;7361806;19;20014;-63
2022/02/25 09:18:44;;;;;;;0.10;0.10;;;;;;;7.88;71.81;102003.41;7371774;19;20470;-63
2022/02/25 09:21:11;;;;;;;0.00;0.00;;;;;;;7.91;72.27;102011.25;7368014;19;20009;-64
2022/02/25 09:23:36;;;;;;;0.00;0.00;;;;;;;7.92;71.81;102004.31;7368556;19;20010;-63
2022/02/25 09:26:11;;;;;;;0.00;0.00;;;;;;;7.96;71.61;102004.34;7063231;19;10001667;-63
2022/02/25 09:28:37;;;;;;;0.00;0.00;;;;;;;8.04;72.43;102004.41;1720554;19;10001897;-64
2022/02/25 09:31:02;;;;;;;0.00;0.00;;;;;;;8.23;72.87;102016.72;7353216;19;20015;-63
2022/02/25 09:33:28;;;;;;;0.00;0.00;;;;;;;8.39;72.29;102009.03;7347047;19;20024;-63
2022/02/25 09:35:53;;;;;;;0.00;0.00;;;;;;;8.57;72.02;102017.88;7353671;19;20007;-64
2022/02/25 09:38:19;;;;;;;0.00;0.00;;;;;;;8.79;71.64;102023.19;7353568;19;20014;-63
2022/02/25 09:40:44;;;;;;;0.00;0.00;;;;;;;9.01;71.55;102025.03;7352995;19;20025;-64
2022/02/25 09:43:10;;;;;;;0.00;0.00;;;;;;;9.27;70.51;102021.69;7351912;19;20006;-63
2022/02/25 09:45:36;;;;;;;0.00;0.00;;;;;;;9.41;70.40;102017.41;7354760;19;20134;-62
2022/02/25 09:48:01;;;;;;;0.00;0.00;;;;;;;9.69;70.25;102035.75;7362933;19;20549;-63
2022/02/25 09:50:27;;;;;;;0.00;0.00;;;;;;;9.85;69.50;102032.28;7354645;19;20070;-63
2022/02/25 09:52:53;;;;;;;0.00;0.00;;;;;;;10.05;68.85;102035.78;7353411;19;20015;-63
2022/02/25 09:55:28;;;;;;;0.00;0.00;;;;;;;10.33;69.61;102047.13;7364376;19;20018;-63
2022/02/25 09:57:56;;;;;;;0.00;0.00;;;;;;;10.48;68.57;102042.78;7352647;19;20066;-63
2022/02/25 10:00:22;;;;;;;0.00;0.00;;;;;;;10.62;68.23;102026.22;7365456;19;20037;-63
2022/02/25 10:02:50;;;;;;;0.05;0.05;;;;;;;10.86;67.29;102033.16;7358012;19;20019;-63
2022/02/25 10:05:20;;;;;;;0.00;0.00;;;;;;;11.04;67.02;102036.56;7361273;19;20006;-64
2022/02/25 10:07:46;;;;;;;0.00;0.00;;;;;;;11.14;66.78;102031.28;7366872;19;20018;-63
2022/02/25 10:10:13;;;;;;;0.00;0.00;;;;;;;11.37;66.53;102041.69;7365709;19;20037;-63
2022/02/25 10:12:45;;;;;;;0.05;0.05;;;;;;;11.58;66.73;102051.16;7353355;19;20041;-64
2022/02/25 10:15:11;;;;;;;0.00;0.00;;;;;;;11.64;65.88;102058.97;7355333;19;20014;-63
2022/02/25 10:17:37;;;;;;;0.00;0.00;;;;;;;11.61;65.26;102045.94;7366225;19;20014;-63
2022/02/25 10:20:07;;;;;;;0.00;0.00;;;;;;;11.73;65.62;102065.03;7350037;19;20021;-63
2022/02/25 10:22:36;;;;;;;0.00;0.00;;;;;;;11.70;65.49;102077.25;7351801;19;20841;-63
2022/02/25 10:25:04;;;;;;;0.00;0.00;;;;;;;11.57;65.60;102070.38;7366628;19;25274;-64
2022/02/25 10:27:42;;;;;;;0.00;0.00;;;;;;;11.52;66.28;102066.91;7355366;19;20070;-63
2022/02/25 10:30:11;;;;;;;0.00;0.00;;;;;;;11.39;65.95;102059.97;7358960;19;20009;-63
2022/02/25 10:33:03;;;;;;;0.00;0.00;;;;;;;11.31;67.79;102067.00;7348327;19;20021;-63
2022/02/25 10:35:40;;;;;;;0.00;0.00;;;;;;;11.21;67.18;102078.38;7360939;19;20018;-63
2022/02/25 10:38:09;;;;;;;0.00;0.00;;;;;;;11.04;67.17;102068.81;7363105;19;20022;-62
2022/02/25 10:40:52;;;;;;;0.00;0.00;;;;;;;11.03;67.93;102072.28;7359218;19;20021;-63
2022/02/25 10:43:18;;;;;;;0.00;0.00;;;;;;;10.94;67.52;102081.91;7357673;19;20090;-63
2022/02/25 10:45:52;;;;;;;0.00;0.00;;;;;;;10.93;67.73;102090.63;7350613;19;20066;-63
2022/02/25 10:48:20;;;;;;;0.00;0.00;;;;;;;10.81;67.32;102066.25;7356898;19;20105;-63
2022/02/25 10:50:54;;;;;;;0.00;0.00;;;;;;;10.96;67.65;102080.19;7361203;19;20014;-63
2022/02/25 10:53:31;;;;;;;0.03;0.03;;;;;;;11.01;67.40;102078.41;7353596;19;20113;-63
2022/02/25 10:56:08;;;;;;;0.00;0.00;;;;;;;11.08;68.20;102078.38;7370029;19;20006;-64
2022/02/25 10:58:48;;;;;;;0.00;0.00;;;;;;;11.21;67.99;102075.75;7363835;19;20419;-63
2022/02/25 11:01:15;;;;;;;0.00;0.00;;;;;;;11.33;67.78;102076.56;7359618;19;20031;-64
2022/02/25 11:03:43;;;;;;;0.00;0.00;;;;;;;11.50;67.32;102073.88;7352415;19;20014;-63
2022/02/25 11:06:10;;;;;;;0.00;0.00;;;;;;;11.65;67.21;102079.03;7351241;19;20010;-63
2022/02/25 11:08:37;;;;;;;0.00;0.00;;;;;;;11.79;66.33;102075.47;7363206;19;20010;-63
2022/02/25 11:11:03;;;;;;;0.00;0.00;;;;;;;11.85;66.48;102075.47;7349146;19;21178;-63
2022/02/25 11:13:30;;;;;;;0.00;0.00;;;;;;;11.92;66.14;102077.19;7355652;19;20087;-64
2022/02/25 11:15:56;;;;;;;0.00;0.00;;;;;;;11.96;66.43;102076.25;7344827;19;20029;-63
2022/02/25 11:18:22;;;;;;;0.00;0.00;;;;;;;12.00;66.21;102075.38;7360792;19;20383;-63
2022/02/25 11:20:50;;;;;;;0.10;0.10;;;;;;;12.09;65.87;102071.81;7349464;19;20090;-63
2022/02/25 11:23:16;;;;;;;;;;;;;;;12.19;68.55;102069.13;7354451;19;20028;-63
2022/02/25 11:25:44;;;;;;;0.00;0.00;;;;;;;12.15;66.21;102075.25;7357778;19;20299;-63
2022/02/25 11:28:11;;;;;;;0.00;0.00;;;;;;;12.20;64.92;102068.25;7350003;19;20014;-63
2022/02/25 11:30:44;;;;;;;0.00;0.00;;;;;;;12.27;65.71;102062.97;7348591;19;20043;-63
2022/02/25 11:33:16;;;;;;;0.00;0.00;;;;;;;12.29;65.44;102069.06;7363543;19;20032;-63
2022/02/25 11:35:52;;;;;;;0.00;0.00;;;;;;;12.46;67.15;102070.66;7356935;19;20014;-63
2022/02/25 11:38:26;;;;;;;0.00;0.00;;;;;;;12.66;66.75;102070.47;7354086;19;20014;-63